Time;durP1;ratioP1;P1;durP2;ratioP2;P2;SDS_P1;SDS_P2;PMS_P1;PMS_P2;Temp;Humidity;BMP_temperature;BMP_pressure;BME280_temperature;BME280_humidity;BME280_pressure;Samples;Min_cycle;Max_cycle;Signal;HPM_P1;HPM_P2
2021/05/02 00:02:00;;;;;;;34.20;22.02;;;;;;;;;;5009621;28;20467;-77
2021/05/02 00:04:26;;;;;;;32.60;22.40;;;;;;;;;;5040883;28;20029;-78
2021/05/02 00:06:52;;;;;;;33.20;18.50;;;;;;;;;;5043586;28;20060;-78
2021/05/02 00:09:17;;;;;;;29.42;20.10;;;;;;;;;;5042699;28;20499;-77
2021/05/02 00:11:42;;;;;;;28.38;18.25;;;;;;;;;;5009004;28;20392;-78
2021/05/02 00:14:08;;;;;;;27.75;19.88;;;;;;;;;;5009925;28;20072;-78
2021/05/02 00:16:35;;;;;;;20.10;14.00;;;;;;;;;;5003318;28;20026;-77
2021/05/02 00:19:00;;;;;;;34.70;20.95;;;;;;;;;;5009638;28;20049;-77
2021/05/02 00:21:25;;;;;;;27.08;19.60;;;;;;;;;;5009432;28;20463;-78
2021/05/02 00:23:50;;;;;;;28.65;18.98;;;;;;;;;;4995207;28;20472;-76
2021/05/02 00:26:16;;;;;;;30.70;20.02;;;;;;;;;;5017260;28;20444;-76
2021/05/02 00:28:45;;;;;;;25.80;16.60;;;;;;;;;;5017063;28;20029;-77
2021/05/02 00:31:12;;;;;;;30.90;20.30;;;;;;;;;;5039499;28;20036;-77
2021/05/02 00:33:37;;;;;;;35.08;21.23;;;;;;;;;;5008467;28;20033;-77
2021/05/02 00:36:05;;;;;;;35.47;21.10;;;;;;;;;;5007775;28;20030;-77
2021/05/02 00:38:34;;;;;;;32.38;20.55;;;;;;;;;;5009904;28;20022;-76
2021/05/02 00:41:04;;;;;;;34.75;21.33;;;;;;;;;;5008227;28;20046;-76
2021/05/02 00:43:44;;;;;;;33.08;21.17;;;;;;;;;;5009147;28;20458;-76
2021/05/02 00:46:10;;;;;;;36.55;22.35;;;;;;;;;;5009619;28;20500;-77
2021/05/02 00:48:54;;;;;;;32.33;20.55;;;;;;;;;;4991972;28;20034;-76
2021/05/02 00:51:20;;;;;;;36.08;21.00;;;;;;;;;;4990835;28;20039;-76
2021/05/02 00:53:46;;;;;;;33.13;20.83;;;;;;;;;;5021344;28;20498;-76
2021/05/02 00:56:22;;;;;;;39.78;23.10;;;;;;;;;;4990536;28;20031;-76
2021/05/02 00:59:07;;;;;;;34.38;22.25;;;;;;;;;;4988956;28;20492;-76
2021/05/02 01:01:35;;;;;;;30.02;19.40;;;;;;;;;;4990618;28;20046;-76
2021/05/02 01:04:02;;;;;;;41.78;22.65;;;;;;;;;;5015628;28;20018;-76
2021/05/02 01:06:29;;;;;;;40.08;22.30;;;;;;;;;;5002677;28;20038;-76
2021/05/02 01:08:57;;;;;;;33.70;20.67;;;;;;;;;;5009598;28;20068;-77
2021/05/02 01:11:23;;;;;;;33.60;21.85;;;;;;;;;;5000900;28;20464;-76
2021/05/02 01:13:56;;;;;;;42.70;24.00;;;;;;;;;;5021046;28;20370;-77
2021/05/02 01:16:22;;;;;;;36.88;24.58;;;;;;;;;;5029151;28;20021;-76
2021/05/02 01:18:48;;;;;;;37.35;23.17;;;;;;;;;;5027854;28;20017;-76
2021/05/02 01:21:14;;;;;;;37.90;22.80;;;;;;;;;;5026651;28;20116;-77
2021/05/02 01:23:40;;;;;;;35.47;22.40;;;;;;;;;;5008780;28;20388;-77
2021/05/02 01:26:05;;;;;;;31.27;19.45;;;;;;;;;;5039071;28;20026;-77
2021/05/02 01:28:31;;;;;;;32.45;23.00;;;;;;;;;;5005128;28;20573;-77
2021/05/02 01:30:56;;;;;;;40.60;24.75;;;;;;;;;;4994225;28;20297;-77
2021/05/02 01:33:22;;;;;;;37.40;23.92;;;;;;;;;;4989159;28;20416;-78
2021/05/02 01:35:49;;;;;;;36.85;22.27;;;;;;;;;;5021275;28;20037;-77
2021/05/02 01:38:15;;;;;;;;;;;;;;;;;;4988547;28;20029;-77
2021/05/02 01:40:41;;;;;;;31.63;21.63;;;;;;;;;;4992884;28;19906;-77
2021/05/02 01:43:06;;;;;;;23.25;16.52;;;;;;;;;;5001341;28;20461;-76
2021/05/02 01:45:31;;;;;;;36.75;21.92;;;;;;;;;;5011349;28;20104;-77
2021/05/02 01:48:06;;;;;;;34.38;19.80;;;;;;;;;;5008796;28;20064;-77
2021/05/02 01:50:37;;;;;;;36.25;22.75;;;;;;;;;;5009830;28;20514;-77
2021/05/02 01:53:02;;;;;;;34.65;21.88;;;;;;;;;;5044151;28;20026;-77
2021/05/02 01:55:28;;;;;;;33.85;22.63;;;;;;;;;;5011394;28;20115;-77
2021/05/02 01:57:53;;;;;;;29.70;20.02;;;;;;;;;;5010462;28;20034;-77
2021/05/02 02:00:25;;;;;;;37.85;24.38;;;;;;;;;;5009671;28;20026;-77
2021/05/02 02:02:54;;;;;;;40.40;24.80;;;;;;;;;;5043759;28;20104;-77
2021/05/02 02:05:23;;;;;;;30.02;21.65;;;;;;;;;;5018441;28;20028;-77
2021/05/02 02:07:49;;;;;;;36.13;23.33;;;;;;;;;;4998714;28;20047;-77
2021/05/02 02:10:18;;;;;;;37.47;22.40;;;;;;;;;;4998806;28;20034;-78
2021/05/02 02:12:45;;;;;;;32.90;21.83;;;;;;;;;;5024540;28;20481;-78
2021/05/02 02:15:11;;;;;;;26.95;17.45;;;;;;;;;;4992702;28;20919;-77
2021/05/02 02:17:36;;;;;;;36.05;22.77;;;;;;;;;;5002283;28;20029;-78
2021/05/02 02:20:03;;;;;;;35.28;22.20;;;;;;;;;;5009879;28;20022;-77
2021/05/02 02:22:29;;;;;;;35.95;23.60;;;;;;;;;;5012177;28;20029;-77
2021/05/02 02:24:58;;;;;;;36.15;22.83;;;;;;;;;;5007400;28;20042;-77
2021/05/02 02:27:27;;;;;;;37.30;22.10;;;;;;;;;;5010682;28;20448;-76
2021/05/02 02:29:56;;;;;;;35.08;22.35;;;;;;;;;;5008488;28;20040;-76
2021/05/02 02:32:21;;;;;;;32.92;22.27;;;;;;;;;;5003467;28;20028;-77
2021/05/02 02:34:47;;;;;;;34.95;22.73;;;;;;;;;;5011995;28;20113;-77
2021/05/02 02:37:20;;;;;;;33.78;21.63;;;;;;;;;;5012555;28;20400;-77
2021/05/02 02:39:49;;;;;;;33.25;23.27;;;;;;;;;;5011964;28;20021;-76
2021/05/02 02:42:15;;;;;;;32.38;21.60;;;;;;;;;;5011916;28;20480;-76
2021/05/02 02:44:48;;;;;;;33.97;22.65;;;;;;;;;;5009021;28;20029;-76
2021/05/02 02:47:17;;;;;;;36.85;21.95;;;;;;;;;;5010572;28;20105;-76
2021/05/02 02:49:45;;;;;;;33.63;22.02;;;;;;;;;;5004659;28;20029;-77
2021/05/02 02:52:13;;;;;;;37.25;22.38;;;;;;;;;;5010505;28;20026;-76
2021/05/02 02:54:41;;;;;;;33.08;22.25;;;;;;;;;;5010443;28;20026;-76
2021/05/02 02:57:06;;;;;;;;;;;;;;;;;;5010115;28;20022;-76
2021/05/02 02:59:33;;;;;;;30.08;21.02;;;;;;;;;;5006926;28;19913;-77
2021/05/02 03:01:59;;;;;;;31.17;20.73;;;;;;;;;;4999352;28;20046;-77
2021/05/02 03:04:25;;;;;;;35.65;22.75;;;;;;;;;;5009165;28;20025;-77
2021/05/02 03:06:52;;;;;;;33.55;21.30;;;;;;;;;;5044146;28;20164;-77
2021/05/02 03:09:21;;;;;;;38.13;23.25;;;;;;;;;;5042502;28;20026;-78
2021/05/02 03:11:47;;;;;;;35.60;21.83;;;;;;;;;;5007370;28;20034;-78
2021/05/02 03:14:12;;;;;;;33.72;22.05;;;;;;;;;;5041623;28;20101;-77
2021/05/02 03:16:40;;;;;;;34.50;21.38;;;;;;;;;;5043417;28;20029;-78
2021/05/02 03:19:07;;;;;;;31.77;20.05;;;;;;;;;;5043113;28;20152;-77
2021/05/02 03:21:32;;;;;;;;;;;;;;;;;;5043885;28;20033;-77
2021/05/02 03:24:01;;;;;;;29.57;20.53;;;;;;;;;;5010245;28;19914;-77
2021/05/02 03:26:27;;;;;;;29.60;19.65;;;;;;;;;;5015558;28;20612;-77
2021/05/02 03:28:55;;;;;;;29.42;18.77;;;;;;;;;;5044578;28;20433;-77
2021/05/02 03:31:23;;;;;;;29.40;21.60;;;;;;;;;;5011402;28;20080;-77
2021/05/02 03:33:50;;;;;;;25.13;19.80;;;;;;;;;;5044023;28;20300;-76
2021/05/02 03:36:17;;;;;;;29.05;20.05;;;;;;;;;;5010873;28;20080;-77
2021/05/02 03:38:49;;;;;;;33.72;22.50;;;;;;;;;;5010141;28;20037;-77
2021/05/02 03:41:18;;;;;;;32.80;21.75;;;;;;;;;;5012361;28;20449;-76
2021/05/02 03:43:44;;;;;;;29.58;21.23;;;;;;;;;;5010637;28;20030;-76
2021/05/02 03:46:23;;;;;;;36.17;22.80;;;;;;;;;;5010779;28;20080;-76
2021/05/02 03:48:51;;;;;;;34.38;21.90;;;;;;;;;;5006887;28;20092;-77
2021/05/02 03:51:16;;;;;;;31.25;19.77;;;;;;;;;;5002751;28;20038;-77
2021/05/02 03:53:42;;;;;;;33.47;22.58;;;;;;;;;;5010581;28;20044;-77
2021/05/02 03:56:07;;;;;;;30.90;21.77;;;;;;;;;;5008852;28;20552;-78
2021/05/02 03:58:32;;;;;;;32.00;22.13;;;;;;;;;;5008594;28;20396;-77
2021/05/02 04:00:57;;;;;;;34.50;23.75;;;;;;;;;;5009767;28;20045;-77
2021/05/02 04:03:22;;;;;;;31.75;20.92;;;;;;;;;;5008492;28;20399;-77
2021/05/02 04:05:48;;;;;;;28.10;20.08;;;;;;;;;;5041227;28;20036;-77
2021/05/02 04:08:13;;;;;;;33.33;22.05;;;;;;;;;;5006617;28;20049;-77
2021/05/02 04:10:38;;;;;;;31.87;22.23;;;;;;;;;;4997912;28;20331;-77
2021/05/02 04:13:03;;;;;;;30.75;20.65;;;;;;;;;;5003525;28;20266;-78
2021/05/02 04:15:29;;;;;;;30.37;21.47;;;;;;;;;;5008608;28;20607;-76
2021/05/02 04:17:54;;;;;;;30.63;21.13;;;;;;;;;;5000363;28;20286;-76
2021/05/02 04:20:19;;;;;;;28.45;21.00;;;;;;;;;;4996081;28;20112;-77
2021/05/02 04:22:45;;;;;;;29.73;21.42;;;;;;;;;;4989344;28;20109;-76
2021/05/02 04:25:10;;;;;;;30.92;20.85;;;;;;;;;;4996737;28;20132;-76
2021/05/02 04:27:35;;;;;;;24.98;19.20;;;;;;;;;;5003577;28;20361;-77
2021/05/02 04:30:01;;;;;;;26.83;20.95;;;;;;;;;;4988860;28;20030;-76
2021/05/02 04:32:26;;;;;;;27.40;20.52;;;;;;;;;;4989132;28;20021;-76
2021/05/02 04:34:52;;;;;;;27.13;20.00;;;;;;;;;;4990322;28;20026;-76
2021/05/02 04:37:17;;;;;;;32.35;21.88;;;;;;;;;;4989063;28;20644;-76
2021/05/02 04:39:45;;;;;;;29.13;22.02;;;;;;;;;;4994919;28;20022;-76
2021/05/02 04:42:10;;;;;;;27.50;20.95;;;;;;;;;;4990231;28;20050;-76
2021/05/02 04:44:36;;;;;;;31.35;21.55;;;;;;;;;;5039402;28;20103;-76
2021/05/02 04:47:01;;;;;;;30.02;21.15;;;;;;;;;;5002798;28;20176;-76
2021/05/02 04:49:26;;;;;;;28.05;20.45;;;;;;;;;;4998613;28;20026;-76
2021/05/02 04:51:52;;;;;;;28.13;20.88;;;;;;;;;;5035626;28;20053;-76
2021/05/02 04:54:17;;;;;;;31.00;20.38;;;;;;;;;;5008386;28;20037;-76
2021/05/02 04:56:42;;;;;;;28.58;20.10;;;;;;;;;;5009712;28;20025;-76
2021/05/02 04:59:08;;;;;;;30.15;20.52;;;;;;;;;;5008464;28;20516;-76
2021/05/02 05:01:35;;;;;;;24.13;20.27;;;;;;;;;;5007805;28;20468;-76
2021/05/02 05:04:01;;;;;;;25.48;19.80;;;;;;;;;;5008471;28;20017;-76
2021/05/02 05:06:26;;;;;;;29.60;20.63;;;;;;;;;;5004593;28;20480;-77
2021/05/02 05:08:51;;;;;;;28.20;19.65;;;;;;;;;;5031698;28;20044;-77
2021/05/02 05:11:17;;;;;;;25.80;19.05;;;;;;;;;;5004840;28;20028;-78
2021/05/02 05:13:42;;;;;;;31.08;22.13;;;;;;;;;;5023122;28;20109;-78
2021/05/02 05:16:08;;;;;;;34.40;22.58;;;;;;;;;;5019825;28;20041;-77
2021/05/02 05:18:33;;;;;;;33.95;23.90;;;;;;;;;;5013184;28;20053;-78
2021/05/02 05:20:58;;;;;;;25.90;20.00;;;;;;;;;;5031303;28;20022;-78
2021/05/02 05:23:24;;;;;;;32.70;22.48;;;;;;;;;;5016589;28;20027;-78
2021/05/02 05:25:49;;;;;;;27.60;20.90;;;;;;;;;;5034234;28;20031;-78
2021/05/02 05:28:15;;;;;;;24.48;17.60;;;;;;;;;;5033548;28;20022;-78
2021/05/02 05:30:40;;;;;;;23.98;17.20;;;;;;;;;;5010789;28;20034;-78
2021/05/02 05:33:06;;;;;;;23.52;17.92;;;;;;;;;;5012932;28;20072;-78
2021/05/02 05:35:32;;;;;;;25.80;20.30;;;;;;;;;;5015708;28;20014;-78
2021/05/02 05:38:00;;;;;;;23.23;19.75;;;;;;;;;;5013347;28;20416;-78
2021/05/02 05:40:25;;;;;;;;;;;;;;;;;;5002648;28;20480;-78
2021/05/02 05:42:50;;;;;;;23.63;18.27;;;;;;;;;;5012505;28;20379;-79
2021/05/02 05:45:19;;;;;;;25.80;18.88;;;;;;;;;;5010186;28;20365;-79
2021/05/02 05:47:48;;;;;;;26.95;20.77;;;;;;;;;;5012383;28;20029;-79
2021/05/02 05:50:14;;;;;;;27.30;19.40;;;;;;;;;;5013313;28;20045;-78
2021/05/02 05:52:40;;;;;;;24.40;19.93;;;;;;;;;;5015491;28;20022;-79
2021/05/02 05:55:05;;;;;;;25.70;19.38;;;;;;;;;;5014535;28;20052;-78
2021/05/02 05:57:31;;;;;;;25.55;18.65;;;;;;;;;;5012249;28;20022;-78
2021/05/02 05:59:56;;;;;;;26.75;19.80;;;;;;;;;;5013843;28;20101;-78
2021/05/02 06:02:21;;;;;;;22.27;18.20;;;;;;;;;;5005926;28;20033;-78
2021/05/02 06:04:46;;;;;;;24.50;18.10;;;;;;;;;;5012504;28;20047;-78
2021/05/02 06:07:12;;;;;;;21.17;16.90;;;;;;;;;;5008038;28;20395;-78
2021/05/02 06:09:37;;;;;;;19.80;17.02;;;;;;;;;;5013598;28;20061;-79
2021/05/02 06:12:02;;;;;;;19.40;16.88;;;;;;;;;;5020599;28;20044;-78
2021/05/02 06:14:28;;;;;;;20.65;15.27;;;;;;;;;;5021207;28;20067;-78
2021/05/02 06:16:53;;;;;;;19.58;15.77;;;;;;;;;;5025102;28;20068;-79
2021/05/02 06:19:19;;;;;;;17.23;14.38;;;;;;;;;;5035667;28;20089;-79
2021/05/02 06:21:44;;;;;;;16.90;14.98;;;;;;;;;;5022489;28;20127;-79
2021/05/02 06:24:09;;;;;;;17.40;14.10;;;;;;;;;;5006077;28;20054;-79
2021/05/02 06:26:34;;;;;;;16.23;13.75;;;;;;;;;;5008781;28;20029;-79
2021/05/02 06:29:00;;;;;;;15.65;13.88;;;;;;;;;;5014130;28;20472;-79
2021/05/02 06:31:25;;;;;;;17.77;14.05;;;;;;;;;;5017571;28;20032;-80
2021/05/02 06:33:50;;;;;;;17.27;13.63;;;;;;;;;;5013235;28;20032;-77
2021/05/02 06:36:16;;;;;;;16.27;13.45;;;;;;;;;;5024156;28;20018;-79
2021/05/02 06:38:41;;;;;;;16.27;13.98;;;;;;;;;;5021657;28;20021;-79
2021/05/02 06:41:06;;;;;;;17.45;13.15;;;;;;;;;;5014193;28;20085;-79
2021/05/02 06:43:32;;;;;;;14.20;12.77;;;;;;;;;;5026609;28;20084;-79
2021/05/02 06:45:57;;;;;;;15.85;13.00;;;;;;;;;;5027046;28;20033;-79
2021/05/02 06:48:22;;;;;;;11.63;10.45;;;;;;;;;;5020952;28;20032;-79
2021/05/02 06:50:48;;;;;;;15.80;13.75;;;;;;;;;;5011039;28;20411;-77
2021/05/02 06:53:13;;;;;;;14.82;12.98;;;;;;;;;;5044947;28;20112;-76
2021/05/02 06:55:41;;;;;;;12.45;11.15;;;;;;;;;;5001219;28;20057;-76
2021/05/02 06:58:06;;;;;;;13.63;11.57;;;;;;;;;;4993940;28;20092;-76
2021/05/02 07:00:31;;;;;;;12.65;11.40;;;;;;;;;;5025849;28;20420;-76
2021/05/02 07:02:56;;;;;;;14.52;12.32;;;;;;;;;;4992571;28;20025;-77
2021/05/02 07:05:22;;;;;;;13.50;12.10;;;;;;;;;;5004814;28;20022;-77
2021/05/02 07:07:47;;;;;;;12.25;11.02;;;;;;;;;;5008368;28;20037;-77
2021/05/02 07:10:13;;;;;;;11.88;10.68;;;;;;;;;;5011742;28;20520;-77
2021/05/02 07:12:38;;;;;;;13.20;11.10;;;;;;;;;;5055872;28;20030;-76
2021/05/02 07:15:05;;;;;;;11.90;10.65;;;;;;;;;;5063309;28;20328;-78
2021/05/02 07:17:35;;;;;;;13.35;11.30;;;;;;;;;;5061712;28;20030;-78
2021/05/02 07:20:04;;;;;;;11.65;10.30;;;;;;;;;;5062036;28;20036;-79
2021/05/02 07:22:32;;;;;;;11.15;10.05;;;;;;;;;;5047532;28;20017;-77
2021/05/02 07:24:57;;;;;;;13.70;10.25;;;;;;;;;;5022735;28;20053;-77
2021/05/02 07:27:22;;;;;;;12.55;10.48;;;;;;;;;;4999177;28;20026;-77
2021/05/02 07:29:48;;;;;;;12.77;11.10;;;;;;;;;;5010268;28;20025;-78
2021/05/02 07:32:13;;;;;;;10.80;9.68;;;;;;;;;;5007363;28;20104;-77
2021/05/02 07:34:38;;;;;;;11.23;9.70;;;;;;;;;;5006840;28;20030;-77
2021/05/02 07:37:09;;;;;;;10.45;9.43;;;;;;;;;;5006326;28;20508;-79
2021/05/02 07:39:36;;;;;;;11.00;9.18;;;;;;;;;;5020308;28;20101;-78
2021/05/02 07:42:01;;;;;;;;;;;;;;;;;;5008049;28;20057;-77
2021/05/02 07:44:29;;;;;;;12.50;10.23;;;;;;;;;;5007630;28;19956;-78
2021/05/02 07:46:54;;;;;;;12.38;10.25;;;;;;;;;;5007990;28;20025;-77
2021/05/02 07:49:19;;;;;;;11.63;10.43;;;;;;;;;;5006620;28;20028;-77
2021/05/02 07:51:45;;;;;;;11.27;10.00;;;;;;;;;;5007155;28;20033;-77
2021/05/02 07:54:10;;;;;;;12.13;10.90;;;;;;;;;;5008162;28;20560;-77
2021/05/02 07:56:35;;;;;;;11.10;9.63;;;;;;;;;;5006664;28;20543;-78
2021/05/02 07:59:03;;;;;;;11.23;9.95;;;;;;;;;;5003396;28;20510;-78
2021/05/02 08:01:28;;;;;;;11.70;9.65;;;;;;;;;;5002523;28;20025;-77
2021/05/02 08:03:53;;;;;;;11.18;10.00;;;;;;;;;;5004099;28;20045;-77
2021/05/02 08:06:19;;;;;;;11.18;9.68;;;;;;;;;;5007792;28;20680;-78
2021/05/02 08:08:46;;;;;;;11.35;9.98;;;;;;;;;;5005427;28;20026;-77
2021/05/02 08:11:11;;;;;;;10.43;8.95;;;;;;;;;;5008877;28;20018;-77
2021/05/02 08:13:37;;;;;;;12.05;9.63;;;;;;;;;;5008544;28;20032;-77
2021/05/02 08:16:03;;;;;;;10.48;8.48;;;;;;;;;;5009493;28;20021;-77
2021/05/02 08:18:28;;;;;;;9.65;8.38;;;;;;;;;;5006123;28;20026;-77
2021/05/02 08:20:53;;;;;;;9.15;8.05;;;;;;;;;;5009165;28;20038;-78
2021/05/02 08:23:21;;;;;;;10.20;7.80;;;;;;;;;;5006658;28;20025;-78
2021/05/02 08:25:49;;;;;;;7.68;6.88;;;;;;;;;;5007781;28;20026;-78
2021/05/02 08:28:14;;;;;;;9.00;7.18;;;;;;;;;;5007517;28;20474;-77
2021/05/02 08:30:39;;;;;;;8.43;6.60;;;;;;;;;;5010113;28;20026;-79
2021/05/02 08:33:04;;;;;;;9.35;6.55;;;;;;;;;;5009859;28;20072;-77
2021/05/02 08:35:30;;;;;;;8.52;6.55;;;;;;;;;;5005464;28;20483;-78
2021/05/02 08:37:55;;;;;;;8.15;6.88;;;;;;;;;;5008485;28;20030;-79
2021/05/02 08:40:20;;;;;;;8.73;6.53;;;;;;;;;;5008424;28;20073;-79
2021/05/02 08:42:46;;;;;;;9.20;5.72;;;;;;;;;;5008250;28;20064;-79
2021/05/02 08:45:12;;;;;;;7.05;6.35;;;;;;;;;;5009060;28;20436;-79
2021/05/02 08:47:37;;;;;;;8.02;6.45;;;;;;;;;;5012682;28;20064;-79
2021/05/02 08:50:04;;;;;;;10.25;6.60;;;;;;;;;;5011768;28;20045;-79
2021/05/02 08:52:29;;;;;;;8.30;5.90;;;;;;;;;;5013054;28;20021;-78
2021/05/02 08:54:55;;;;;;;7.57;6.07;;;;;;;;;;5003239;28;20030;-79
2021/05/02 08:57:20;;;;;;;8.73;6.60;;;;;;;;;;5005928;28;20030;-79
2021/05/02 08:59:46;;;;;;;7.95;6.00;;;;;;;;;;5001625;28;20041;-79
2021/05/02 09:02:25;;;;;;;8.02;6.00;;;;;;;;;;5015798;28;20021;-78
2021/05/02 09:04:51;;;;;;;6.57;5.85;;;;;;;;;;5015432;28;20026;-79
2021/05/02 09:07:16;;;;;;;8.18;6.10;;;;;;;;;;5017266;28;20113;-79
2021/05/02 09:09:44;;;;;;;6.72;5.65;;;;;;;;;;5018331;28;20049;-79
2021/05/02 09:12:23;;;;;;;7.13;5.28;;;;;;;;;;5020703;28;20043;-80
2021/05/02 09:14:48;;;;;;;6.05;5.45;;;;;;;;;;5022981;28;20061;-79
2021/05/02 09:17:19;;;;;;;6.43;5.70;;;;;;;;;;5027479;28;20084;-79
2021/05/02 09:19:46;;;;;;;6.43;5.50;;;;;;;;;;5028447;28;20028;-77
2021/05/02 09:22:12;;;;;;;7.85;5.53;;;;;;;;;;5021420;28;20022;-80
2021/05/02 09:24:37;;;;;;;7.55;5.25;;;;;;;;;;5017335;28;20056;-80
2021/05/02 09:27:02;;;;;;;8.10;5.93;;;;;;;;;;5021377;28;20049;-79
2021/05/02 09:29:31;;;;;;;6.90;5.30;;;;;;;;;;5019512;28;20350;-79
2021/05/02 09:31:58;;;;;;;6.07;5.47;;;;;;;;;;5021588;28;20026;-79
2021/05/02 09:34:24;;;;;;;7.15;5.40;;;;;;;;;;5020915;28;20049;-80
2021/05/02 09:36:51;;;;;;;7.95;5.22;;;;;;;;;;5013661;28;20388;-78
2021/05/02 09:39:35;;;;;;;6.78;5.43;;;;;;;;;;5023561;28;20133;-78
2021/05/02 09:42:11;;;;;;;8.10;5.70;;;;;;;;;;5020918;28;20034;-77
2021/05/02 09:44:37;;;;;;;5.68;4.85;;;;;;;;;;5018074;28;20032;-77
2021/05/02 09:47:19;;;;;;;7.78;5.30;;;;;;;;;;5032779;28;20015;-77
2021/05/02 09:50:00;;;;;;;7.43;4.78;;;;;;;;;;5014344;28;20060;-78
2021/05/02 09:52:39;;;;;;;6.57;5.32;;;;;;;;;;4993621;28;20038;-77
2021/05/02 09:55:18;;;;;;;6.47;5.60;;;;;;;;;;4989859;28;20480;-77
2021/05/02 09:57:52;;;;;;;7.57;5.55;;;;;;;;;;5005993;28;20480;-78
2021/05/02 10:00:34;;;;;;;6.82;5.18;;;;;;;;;;4996789;28;20018;-77
2021/05/02 10:03:00;;;;;;;6.35;5.18;;;;;;;;;;5008982;28;20034;-78
2021/05/02 10:05:26;;;;;;;7.10;5.22;;;;;;;;;;5011141;28;20109;-79
2021/05/02 10:07:52;;;;;;;7.25;5.45;;;;;;;;;;5006464;28;20072;-78
2021/05/02 10:10:20;;;;;;;6.32;5.07;;;;;;;;;;5020155;28;20033;-80
2021/05/02 10:12:49;;;;;;;5.80;5.15;;;;;;;;;;5024157;28;20041;-79
2021/05/02 10:15:14;;;;;;;6.35;5.03;;;;;;;;;;5022656;28;20077;-80
2021/05/02 10:17:40;;;;;;;6.25;5.50;;;;;;;;;;5022676;28;20068;-80
2021/05/02 10:20:05;;;;;;;6.88;5.25;;;;;;;;;;5019450;28;20022;-80
2021/05/02 10:22:31;;;;;;;10.10;7.10;;;;;;;;;;5018542;28;20022;-80
2021/05/02 10:24:58;;;;;;;8.05;5.50;;;;;;;;;;5012241;28;20139;-79
2021/05/02 10:27:29;;;;;;;5.78;5.18;;;;;;;;;;5008970;28;20026;-79
2021/05/02 10:29:59;;;;;;;7.97;5.70;;;;;;;;;;5014623;28;20026;-79
2021/05/02 10:32:34;;;;;;;7.28;5.68;;;;;;;;;;5015682;28;20026;-79
2021/05/02 10:35:06;;;;;;;6.40;5.00;;;;;;;;;;5021215;28;20026;-79
2021/05/02 10:37:36;;;;;;;6.93;5.90;;;;;;;;;;5021856;28;20041;-79
2021/05/02 10:40:06;;;;;;;5.90;5.22;;;;;;;;;;5022272;28;20085;-80
2021/05/02 10:42:35;;;;;;;7.68;5.75;;;;;;;;;;5021722;28;20032;-80
2021/05/02 10:45:20;;;;;;;6.93;5.30;;;;;;;;;;5007413;28;20021;-80
2021/05/02 10:47:45;;;;;;;7.28;5.95;;;;;;;;;;5021482;28;20408;-80
2021/05/02 10:50:24;;;;;;;8.00;5.90;;;;;;;;;;5001164;28;20026;-79
2021/05/02 10:53:00;;;;;;;6.63;5.35;;;;;;;;;;5009052;28;20041;-80
2021/05/02 10:55:44;;;;;;;7.38;5.57;;;;;;;;;;5006484;28;20054;-79
2021/05/02 10:58:17;;;;;;;6.97;5.05;;;;;;;;;;5019213;28;20046;-79
2021/05/02 11:00:49;;;;;;;6.22;4.72;;;;;;;;;;5016172;28;20021;-80
2021/05/02 11:03:33;;;;;;;7.32;4.80;;;;;;;;;;5034127;28;20049;-79
2021/05/02 11:06:01;;;;;;;6.95;5.78;;;;;;;;;;5021263;28;20044;-80
2021/05/02 11:08:47;;;;;;;5.63;4.95;;;;;;;;;;5006819;28;20033;-79
2021/05/02 11:11:34;;;;;;;6.03;5.15;;;;;;;;;;5016742;28;20029;-79
2021/05/02 11:14:08;;;;;;;6.18;4.78;;;;;;;;;;5001351;28;20018;-78
2021/05/02 11:16:34;;;;;;;10.20;7.30;;;;;;;;;;5013754;28;20084;-79
2021/05/02 11:18:59;;;;;;;7.50;6.63;;;;;;;;;;5017892;28;20026;-80
2021/05/02 11:21:25;;;;;;;6.22;5.07;;;;;;;;;;5035241;28;20014;-80
2021/05/02 11:23:55;;;;;;;5.80;4.80;;;;;;;;;;5020467;28;20033;-79
2021/05/02 11:26:39;;;;;;;6.00;4.88;;;;;;;;;;5023214;28;20018;-79
2021/05/02 11:29:17;;;;;;;6.78;5.68;;;;;;;;;;5023800;28;20030;-79
2021/05/02 11:31:43;;;;;;;7.43;6.10;;;;;;;;;;5021923;28;20026;-79
2021/05/02 11:34:08;;;;;;;7.85;6.88;;;;;;;;;;5021668;28;20052;-79
2021/05/02 11:36:40;;;;;;;7.70;6.70;;;;;;;;;;5022654;28;20034;-78
2021/05/02 11:39:06;;;;;;;7.10;6.40;;;;;;;;;;5018664;28;20033;-79
2021/05/02 11:41:50;;;;;;;7.97;6.55;;;;;;;;;;5019841;28;20112;-79
2021/05/02 11:44:15;;;;;;;6.28;5.32;;;;;;;;;;5019508;28;20018;-79
2021/05/02 11:46:40;;;;;;;6.63;5.47;;;;;;;;;;5020302;28;20026;-80
2021/05/02 11:49:05;;;;;;;8.35;5.88;;;;;;;;;;5022183;28;20026;-80
2021/05/02 11:51:31;;;;;;;7.43;5.93;;;;;;;;;;5022519;28;20771;-79
2021/05/02 11:53:57;;;;;;;6.90;6.20;;;;;;;;;;5008591;28;20526;-77
2021/05/02 11:56:24;;;;;;;8.18;6.38;;;;;;;;;;5011454;28;20033;-77
2021/05/02 11:58:50;;;;;;;7.90;6.75;;;;;;;;;;5002576;28;20105;-77
2021/05/02 12:01:22;;;;;;;9.75;7.55;;;;;;;;;;5016536;28;20036;-78
2021/05/02 12:03:48;;;;;;;9.90;6.40;;;;;;;;;;5028397;28;20475;-79
2021/05/02 12:06:19;;;;;;;8.95;8.05;;;;;;;;;;5016455;28;20041;-78
2021/05/02 12:08:46;;;;;;;7.68;6.93;;;;;;;;;;5022189;28;20119;-83
2021/05/02 12:11:12;;;;;;;8.90;7.80;;;;;;;;;;5028931;28;20033;-79
2021/05/02 12:13:43;;;;;;;7.82;7.03;;;;;;;;;;5027101;28;20255;-78
2021/05/02 12:16:13;;;;;;;8.02;6.95;;;;;;;;;;5019589;28;20022;-78
2021/05/02 12:18:48;;;;;;;7.22;6.53;;;;;;;;;;5008309;28;20030;-78
2021/05/02 12:21:17;;;;;;;7.50;6.78;;;;;;;;;;5012210;28;20113;-79
2021/05/02 12:23:42;;;;;;;7.53;6.72;;;;;;;;;;5018511;28;20094;-78
2021/05/02 12:26:16;;;;;;;7.35;6.53;;;;;;;;;;5003439;28;20097;-79
2021/05/02 12:28:41;;;;;;;7.82;5.68;;;;;;;;;;5004786;28;20497;-78
2021/05/02 12:31:09;;;;;;;6.43;5.75;;;;;;;;;;5009918;28;20057;-78
2021/05/02 12:33:35;;;;;;;;;;;;;;;;;;5013591;28;20026;-78
2021/05/02 12:36:00;;;;;;;5.85;4.72;;;;;;;;;;5007732;28;19921;-76
2021/05/02 12:38:26;;;;;;;4.68;3.92;;;;;;;;;;5008645;28;20052;-79
2021/05/02 12:40:52;;;;;;;4.70;3.80;;;;;;;;;;5018599;28;20018;-79
2021/05/02 12:43:24;;;;;;;4.03;3.25;;;;;;;;;;5022631;28;20100;-78
2021/05/02 12:45:49;;;;;;;4.20;3.40;;;;;;;;;;5024918;28;20041;-77
2021/05/02 12:48:29;;;;;;;4.22;3.60;;;;;;;;;;4995162;28;20030;-77
2021/05/02 12:50:55;;;;;;;4.13;3.00;;;;;;;;;;5001436;28;20026;-77
2021/05/02 12:53:20;;;;;;;3.38;2.88;;;;;;;;;;4996105;28;20073;-76
2021/05/02 12:55:53;;;;;;;4.78;3.30;;;;;;;;;;5000500;28;20034;-77
2021/05/02 12:58:32;;;;;;;4.10;3.10;;;;;;;;;;5010019;28;20030;-77
2021/05/02 13:00:58;;;;;;;3.83;3.33;;;;;;;;;;4997008;28;20395;-78
2021/05/02 13:03:40;;;;;;;4.10;3.17;;;;;;;;;;5003735;28;20480;-77
2021/05/02 13:06:10;;;;;;;5.32;3.60;;;;;;;;;;5001202;28;20034;-76
2021/05/02 13:08:37;;;;;;;5.03;3.65;;;;;;;;;;5033136;28;20034;-77
2021/05/02 13:11:21;;;;;;;4.63;3.50;;;;;;;;;;5004994;28;20033;-77
2021/05/02 13:13:46;;;;;;;4.05;3.25;;;;;;;;;;5003348;28;20113;-77
2021/05/02 13:16:11;;;;;;;3.63;2.97;;;;;;;;;;5006516;28;20116;-78
2021/05/02 13:18:37;;;;;;;4.40;3.30;;;;;;;;;;5004853;28;20107;-78
2021/05/02 13:21:02;;;;;;;4.88;3.40;;;;;;;;;;5015150;28;20077;-78
2021/05/02 13:23:37;;;;;;;4.28;3.40;;;;;;;;;;5004636;28;20080;-79
2021/05/02 13:26:12;;;;;;;5.18;3.88;;;;;;;;;;5008897;28;20052;-78
2021/05/02 13:28:38;;;;;;;5.55;3.42;;;;;;;;;;5000853;28;20033;-78
2021/05/02 13:31:07;;;;;;;4.53;3.40;;;;;;;;;;5001430;28;20436;-79
2021/05/02 13:33:33;;;;;;;5.80;3.78;;;;;;;;;;4992899;28;20125;-78
2021/05/02 13:36:01;;;;;;;4.38;3.67;;;;;;;;;;5007497;28;20104;-78
2021/05/02 13:38:27;;;;;;;3.00;2.67;;;;;;;;;;5012189;28;20516;-78
2021/05/02 13:40:52;;;;;;;3.30;2.63;;;;;;;;;;5002114;28;20033;-77
2021/05/02 13:43:18;;;;;;;2.90;2.30;;;;;;;;;;5007846;28;20025;-78
2021/05/02 13:45:44;;;;;;;3.65;2.63;;;;;;;;;;5014711;28;20034;-78
2021/05/02 13:48:12;;;;;;;3.90;3.22;;;;;;;;;;5011903;28;20029;-78
2021/05/02 13:50:37;;;;;;;;;;;;;;;;;;5012508;28;20022;-78
2021/05/02 13:53:02;;;;;;;2.67;2.42;;;;;;;;;;5013642;28;20636;-79
2021/05/02 13:55:27;;;;;;;2.80;2.35;;;;;;;;;;5018052;28;20026;-79
2021/05/02 13:57:53;;;;;;;3.80;2.90;;;;;;;;;;5029867;28;20060;-79
2021/05/02 14:00:18;;;;;;;4.20;3.33;;;;;;;;;;5020226;28;20527;-79
2021/05/02 14:02:45;;;;;;;4.22;2.90;;;;;;;;;;5017602;28;20026;-79
2021/05/02 14:05:12;;;;;;;3.30;2.50;;;;;;;;;;5010577;28;20044;-79
2021/05/02 14:07:37;;;;;;;2.58;2.10;;;;;;;;;;5013557;28;20022;-79
2021/05/02 14:10:03;;;;;;;3.08;2.20;;;;;;;;;;5021747;28;20048;-79
2021/05/02 14:12:29;;;;;;;4.72;1.90;;;;;;;;;;5014313;28;20041;-79
2021/05/02 14:14:54;;;;;;;2.53;1.90;;;;;;;;;;5017398;28;20026;-80
2021/05/02 14:17:19;;;;;;;2.03;1.73;;;;;;;;;;5005489;28;20029;-77
2021/05/02 14:19:44;;;;;;;2.67;1.90;;;;;;;;;;5016453;28;20387;-78
2021/05/02 14:22:11;;;;;;;2.90;2.05;;;;;;;;;;5024266;28;20021;-78
2021/05/02 14:24:36;;;;;;;2.63;2.30;;;;;;;;;;5011110;28;20410;-79
2021/05/02 14:27:02;;;;;;;2.92;2.22;;;;;;;;;;5002136;28;20033;-79
2021/05/02 14:29:27;;;;;;;3.90;2.60;;;;;;;;;;5015074;28;20026;-78
2021/05/02 14:31:57;;;;;;;5.32;2.55;;;;;;;;;;5007166;28;20400;-77
2021/05/02 14:34:23;;;;;;;3.80;2.67;;;;;;;;;;5013471;28;20034;-78